Time;durP1;ratioP1;P1;durP2;ratioP2;P2;SDS_P1;SDS_P2;PMS_P1;PMS_P2;Temp;Humidity;BMP_temperature;BMP_pressure;BME280_temperature;BME280_humidity;BME280_pressure;Samples;Min_cycle;Max_cycle;Signal;HPM_P1;HPM_P2
2023/10/16 00:01:10;;;;;;;;;;;;;;;;;;5096653;28;19915;-74
2023/10/16 00:03:38;;;;;;;;;;;;;;;;;;5096346;28;19908;-74
2023/10/16 00:06:05;;;;;;;;;;;;;;;;;;5095410;28;20257;-74
2023/10/16 00:08:33;;;;;;;;;;;;;;;;;;5096336;28;19919;-74
2023/10/16 00:10:58;;;;;;;;;;;;;;;;;;5096000;28;19912;-74
2023/10/16 00:13:28;;;;;;;;;;;;;;;;;;5096346;28;19908;-74
2023/10/16 00:15:54;;;;;;;;;;;;;;;;;;5096252;28;19999;-74
2023/10/16 00:18:23;;;;;;;;;;;;;;;;;;5095844;28;20006;-74
2023/10/16 00:20:49;;;;;;;;;;;;;;;;;;5096121;28;19944;-74
2023/10/16 00:23:15;;;;;;;;;;;;;;;;;;5096119;28;19908;-74
2023/10/16 00:25:41;;;;;;;;;;;;;;;;;;5095642;28;20003;-74
2023/10/16 00:28:07;;;;;;;;;;;;;;;;;;5095696;28;19943;-72
2023/10/16 00:30:33;;;;;;;;;;;;;;;;;;5095677;28;19908;-74
2023/10/16 00:32:59;;;;;;;;;;;;;;;;;;5095892;28;19904;-74
2023/10/16 00:35:25;;;;;;;;;;;;;;;;;;5096154;28;19915;-74
2023/10/16 00:37:51;;;;;;;;;;;;;;;;;;5095395;28;19985;-74
2023/10/16 00:40:31;;;;;;;;;;;;;;;;;;5095732;28;19912;-74
2023/10/16 00:42:57;;;;;;;;;;;;;;;;;;5095850;28;20275;-74
2023/10/16 00:45:23;;;;;;;;;;;;;;;;;;5095247;28;19912;-74
2023/10/16 00:47:49;;;;;;;;;;;;;;;;;;5095704;28;19951;-74
2023/10/16 00:50:15;;;;;;;;;;;;;;;;;;5095513;28;19908;-74
2023/10/16 00:52:42;;;;;;;;;;;;;;;;;;5094092;28;19908;-74
2023/10/16 00:55:11;;;;;;;;;;;;;;;;;;5095443;28;19909;-74
2023/10/16 00:57:36;;;;;;;;;;;;;;;;;;5095401;28;19908;-74
2023/10/16 01:00:12;;;;;;;;;;;;;;;;;;5095053;28;19919;-74
2023/10/16 01:02:40;;;;;;;;;;;;;;;;;;5095907;28;19908;-74
2023/10/16 01:05:07;;;;;;;;;;;;;;;;;;5095301;28;19994;-74
2023/10/16 01:07:33;;;;;;;;;;;;;;;;;;5094803;28;19930;-74
2023/10/16 01:09:59;;;;;;;;;;;;;;;;;;5095202;28;19921;-74
2023/10/16 01:12:25;;;;;;;;;;;;;;;;;;5095255;28;19994;-74
2023/10/16 01:14:51;;;;;;;;;;;;;;;;;;5094725;28;19951;-74
2023/10/16 01:17:29;;;;;;;;;;;;;;;;;;5095034;28;19943;-74
2023/10/16 01:19:56;;;;;;;;;;;;;;;;;;5094602;28;19908;-74
2023/10/16 01:22:22;;;;;;;;;;;;;;;;;;5094932;28;19939;-74
2023/10/16 01:24:48;;;;;;;;;;;;;;;;;;5095037;28;19908;-74
2023/10/16 01:27:26;;;;;;;;;;;;;;;;;;5094692;28;19908;-74
2023/10/16 01:29:57;;;;;;;;;;;;;;;;;;5094608;28;19920;-74
2023/10/16 01:32:23;;;;;;;;;;;;;;;;;;5094762;28;19912;-74
2023/10/16 01:34:50;;;;;;;;;;;;;;;;;;5094337;28;19915;-74
2023/10/16 01:37:18;;;;;;;;;;;;;;;;;;5094699;28;19915;-74
2023/10/16 01:39:49;;;;;;;;;;;;;;;;;;5094599;28;19908;-74
2023/10/16 01:42:15;;;;;;;;;;;;;;;;;;5094316;28;19916;-72
2023/10/16 01:44:43;;;;;;;;;;;;;;;;;;5094511;28;19908;-72
2023/10/16 01:47:15;;;;;;;;;;;;;;;;;;5094547;28;19954;-72
2023/10/16 01:49:41;;;;;;;;;;;;;;;;;;5094184;28;19939;-72
2023/10/16 01:52:10;;;;;;;;;;;;;;;;;;5094375;28;19915;-73
2023/10/16 01:54:38;;;;;;;;;;;;;;;;;;5094341;28;19962;-72
2023/10/16 01:57:10;;;;;;;;;;;;;;;;;;5093978;28;19998;-72
2023/10/16 01:59:36;;;;;;;;;;;;;;;;;;5094342;28;20378;-72
2023/10/16 02:02:01;;;;;;;;;;;;;;;;;;5093937;28;19908;-72
2023/10/16 02:04:28;;;;;;;;;;;;;;;;;;5093928;28;20347;-72
2023/10/16 02:06:53;;;;;;;;;;;;;;;;;;5094247;28;19953;-72
2023/10/16 02:09:23;;;;;;;;;;;;;;;;;;5093903;28;19919;-73
2023/10/16 02:11:49;;;;;;;;;;;;;;;;;;5094421;28;19908;-73
2023/10/16 02:14:15;;;;;;;;;;;;;;;;;;5094113;28;20037;-73
2023/10/16 02:16:41;;;;;;;;;;;;;;;;;;5093572;28;19908;-73
2023/10/16 02:19:07;;;;;;;;;;;;;;;;;;5094086;28;19975;-73
2023/10/16 02:21:34;;;;;;;;;;;;;;;;;;5093995;28;19908;-73
2023/10/16 02:24:03;;;;;;;;;;;;;;;;;;5093986;28;19959;-73
2023/10/16 02:26:30;;;;;;;;;;;;;;;;;;5094069;28;19954;-73
2023/10/16 02:29:00;;;;;;;;;;;;;;;;;;5093697;28;19920;-72
2023/10/16 02:31:26;;;;;;;;;;;;;;;;;;5093551;28;19978;-73
2023/10/16 02:33:55;;;;;;;;;;;;;;;;;;5094208;28;20360;-73
2023/10/16 02:36:21;;;;;;;;;;;;;;;;;;5093884;28;19930;-73
2023/10/16 02:38:50;;;;;;;;;;;;;;;;;;5093440;28;20060;-73
2023/10/16 02:41:19;;;;;;;;;;;;;;;;;;5093834;28;19916;-73
2023/10/16 02:43:46;;;;;;;;;;;;;;;;;;5093831;28;19909;-73
2023/10/16 02:46:12;;;;;;;;;;;;;;;;;;5093358;28;20321;-73
2023/10/16 02:48:38;;;;;;;;;;;;;;;;;;5093698;28;19916;-73
2023/10/16 02:51:06;;;;;;;;;;;;;;;;;;5094260;28;19965;-73
2023/10/16 02:53:34;;;;;;;;;;;;;;;;;;5093347;28;19912;-73
2023/10/16 02:56:08;;;;;;;;;;;;;;;;;;5093709;28;19950;-73
2023/10/16 02:58:34;;;;;;;;;;;;;;;;;;5093361;28;19908;-73
2023/10/16 03:01:00;;;;;;;;;;;;;;;;;;5093658;28;20356;-73
2023/10/16 03:03:26;;;;;;;;;;;;;;;;;;5093781;28;20003;-73
2023/10/16 03:05:52;;;;;;;;;;;;;;;;;;5093427;28;20065;-73
2023/10/16 03:08:22;;;;;;;;;;;;;;;;;;5093536;28;20006;-74
2023/10/16 03:10:48;;;;;;;;;;;;;;;;;;5093578;28;20316;-73
2023/10/16 03:13:18;;;;;;;;;;;;;;;;;;5093159;28;20285;-73
2023/10/16 03:15:47;;;;;;;;;;;;;;;;;;5095411;28;19908;-73
2023/10/16 03:18:22;;;;;;;;;;;;;;;;;;5097345;28;19994;-73
2023/10/16 03:20:48;;;;;;;;;;;;;;;;;;5097146;28;19908;-74
2023/10/16 03:23:14;;;;;;;;;;;;;;;;;;5097267;28;19915;-73
2023/10/16 03:28:08;;;;;;;;;;;;;;;;;;5096742;28;19970;-73
2023/10/16 03:30:34;;;;;;;;;;;;;;;;;;5097337;28;19940;-73
2023/10/16 03:33:03;;;;;;;;;;;;;;;;;;5097073;28;19912;-73
2023/10/16 03:35:32;;;;;;;;;;;;;;;;;;5096626;28;19908;-73
2023/10/16 03:37:58;;;;;;;;;;;;;;;;;;5096921;28;19911;-73
2023/10/16 03:40:27;;;;;;;;;;;;;;;;;;5096538;28;19953;-73
2023/10/16 03:42:53;;;;;;;;;;;;;;;;;;5096750;28;19912;-73
2023/10/16 03:45:21;;;;;;;;;;;;;;;;;;5096725;28;20001;-73
2023/10/16 03:47:46;;;;;;;;;;;;;;;;;;5096390;28;20390;-74
2023/10/16 03:50:13;;;;;;;;;;;;;;;;;;5096681;28;20022;-73
2023/10/16 03:52:39;;;;;;;;;;;;;;;;;;5096683;28;19908;-73
2023/10/16 03:55:24;;;;;;;;;;;;;;;;;;5096332;28;19915;-73
2023/10/16 03:57:50;;;;;;;;;;;;;;;;;;5096597;28;20363;-73
2023/10/16 04:00:18;;;;;;;;;;;;;;;;;;5096551;28;19908;-73
2023/10/16 04:02:44;;;;;;;;;;;;;;;;;;5096270;28;19911;-73
2023/10/16 04:07:55;;;;;;;;;;;;;;;;;;5096330;28;20271;-73
2023/10/16 04:10:30;;;;;;;;;;;;;;;;;;5095995;28;19912;-73
2023/10/16 04:12:57;;;;;;;;;;;;;;;;;;5096055;28;19908;-73
2023/10/16 04:15:37;;;;;;;;;;;;;;;;;;5096179;28;19912;-73
2023/10/16 04:18:04;;;;;;;;;;;;;;;;;;5095363;28;19926;-73
2023/10/16 04:20:43;;;;;;;;;;;;;;;;;;5096188;28;20270;-73
2023/10/16 04:23:29;;;;;;;;;;;;;;;;;;5095698;28;19908;-73
2023/10/16 04:31:43;;;;;;;;;;;;;;;;;;5094173;28;19915;-73
2023/10/16 04:36:54;;;;;;;;;;;;;;;;;;5093704;28;20011;-73
2023/10/16 04:50:29;;;;;;;;;;;;;;;;;;5093699;28;20387;-73
2023/10/16 04:56:15;;;;;;;;;;;;;;;;;;5093690;28;19944;-73
2023/10/16 05:01:03;;;;;;;;;;;;;;;;;;5093316;28;20283;-73
2023/10/16 06:16:41;;;;;;;;;;;;;;;;;;5083012;28;19916;-66
2023/10/16 06:19:17;;;;;;;;;;;;;;;;;;5092636;28;19931;-65
2023/10/16 06:21:46;;;;;;;;;;;;;;;;;;5092851;28;19912;-66
2023/10/16 06:26:57;;;;;;;;;;;;;;;;;;5072498;28;19935;-66
2023/10/16 06:29:27;;;;;;;;;;;;;;;;;;5071545;28;20364;-66
2023/10/16 06:31:53;;;;;;;;;;;;;;;;;;5089618;28;19920;-65
2023/10/16 06:34:20;;;;;;;;;;;;;;;;;;5092539;28;19912;-65
2023/10/16 06:36:46;;;;;;;;;;;;;;;;;;5091833;28;20019;-66
2023/10/16 06:39:35;;;;;;;;;;;;;;;;;;5091340;28;20402;-66
2023/10/16 06:42:02;;;;;;;;;;;;;;;;;;5090931;28;19962;-66
2023/10/16 06:44:28;;;;;;;;;;;;;;;;;;5090401;28;19912;-66
2023/10/16 06:46:58;;;;;;;;;;;;;;;;;;5092176;28;19926;-66
2023/10/16 06:49:26;;;;;;;;;;;;;;;;;;5091632;28;19978;-66
2023/10/16 06:51:52;;;;;;;;;;;;;;;;;;5096082;28;19990;-66
2023/10/16 06:54:18;;;;;;;;;;;;;;;;;;5109234;28;19912;-67
2023/10/16 06:56:44;;;;;;;;;;;;;;;;;;5094067;28;19914;-66
2023/10/16 06:59:16;;;;;;;;;;;;;;;;;;5091725;28;19912;-66
2023/10/16 07:01:43;;;;;;;;;;;;;;;;;;5092228;28;19965;-67
2023/10/16 07:04:11;;;;;;;;;;;;;;;;;;5092694;28;20394;-67
2023/10/16 07:06:38;;;;;;;;;;;;;;;;;;5094858;28;20257;-67
2023/10/16 07:09:04;;;;;;;;;;;;;;;;;;5094187;28;19931;-67
2023/10/16 07:11:30;;;;;;;;;;;;;;;;;;5086871;28;19916;-66
2023/10/16 07:13:56;;;;;;;;;;;;;;;;;;5095632;28;19958;-67
2023/10/16 07:16:22;;;;;;;;;;;;;;;;;;5094443;28;19916;-66
2023/10/16 07:18:53;;;;;;;;;;;;;;;;;;5091837;28;19908;-66
2023/10/16 07:21:20;;;;;;;;;;;;;;;;;;5089574;28;20365;-66
2023/10/16 07:23:46;;;;;;;;;;;;;;;;;;5094659;28;20500;-68
2023/10/16 07:26:18;;;;;;;;;;;;;;;;;;5110141;28;20331;-66
2023/10/16 07:28:50;;;;;;;;;;;;;;;;;;5107508;28;19959;-66
2023/10/16 07:31:16;;;;;;;;;;;;;;;;;;5100301;28;19912;-65
2023/10/16 07:33:42;;;;;;;;;;;;;;;;;;5094082;28;19927;-66
2023/10/16 07:36:11;;;;;;;;;;;;;;;;;;5102339;28;19965;-66
2023/10/16 07:38:38;;;;;;;;;;;;;;;;;;5092860;28;19913;-66
2023/10/16 07:41:04;;;;;;;;;;;;;;;;;;5094259;28;19916;-65
2023/10/16 07:43:32;;;;;;;;;;;;;;;;;;5089667;28;20015;-65
2023/10/16 07:49:54;;;;;;;;;;;;;;;;;;5095715;27;19920;-64
2023/10/16 07:52:22;;;;;;;;;;;;;;;;;;5083866;28;19935;-65
2023/10/16 07:54:49;;;;;;;;;;;;;;;;;;5086129;28;19916;-65
2023/10/16 07:57:17;;;;;;;;;;;;;;;;;;5085484;28;19923;-64
2023/10/16 07:59:43;;;;;;;;;;;;;;;;;;5087947;28;19952;-64
2023/10/16 08:02:17;;;;;;;;;;;;;;;;;;5084663;28;19916;-65
2023/10/16 08:04:43;;;;;;;;;;;;;;;;;;5093333;28;19911;-65
2023/10/16 08:07:19;;;;;;;;;;;;;;;;;;5094818;28;19923;-66
2023/10/16 08:10:52;;;;;;;;;;;;;;;;;;5086850;28;19917;-66
2023/10/16 08:13:24;;;;;;;;;;;;;;;;;;5086347;28;19916;-65
2023/10/16 08:15:51;;;;;;;;;;;;;;;;;;5082913;28;19958;-65
2023/10/16 08:18:18;;;;;;;;;;;;;;;;;;5081250;28;20008;-67
2023/10/16 08:20:59;;;;;;;;;;;;;;;;;;5082940;28;20007;-66
2023/10/16 08:23:31;;;;;;;;;;;;;;;;;;5082970;28;19919;-65
2023/10/16 08:26:00;;;;;;;;;;;;;;;;;;5093943;28;19908;-65
2023/10/16 08:28:35;;;;;;;;;;;;;;;;;;5081552;28;19919;-66
2023/10/16 08:31:10;;;;;;;;;;;;;;;;;;5081463;28;19908;-65
2023/10/16 08:33:38;;;;;;;;;;;;;;;;;;5079474;28;19943;-66
2023/10/16 08:36:05;;;;;;;;;;;;;;;;;;5081666;28;19908;-63
2023/10/16 08:38:36;;;;;;;;;;;;;;;;;;5080283;28;19916;-64
2023/10/16 08:41:14;;;;;;;;;;;;;;;;;;5081279;28;20449;-64
2023/10/16 08:43:52;;;;;;;;;;;;;;;;;;5080776;28;19923;-64
2023/10/16 08:46:19;;;;;;;;;;;;;;;;;;5078943;28;19909;-64
2023/10/16 08:48:45;;;;;;;;;;;;;;;;;;5078011;28;19956;-65
2023/10/16 08:51:11;;;;;;;;;;;;;;;;;;5074353;28;19965;-64
2023/10/16 08:53:37;;;;;;;;;;;;;;;;;;5076990;28;19921;-64
2023/10/16 08:57:38;;;;;;;;;;;;;;;;;;5127137;27;19934;-65
2023/10/16 09:00:10;;;;;;;;;;;;;;;;;;5108631;28;20449;-65
2023/10/16 09:02:36;;;;;;;;;;;;;;;;;;5106071;28;19912;-65
2023/10/16 09:05:08;;;;;;;;;;;;;;;;;;5111337;28;20395;-66
2023/10/16 09:07:35;;;;;;;;;;;;;;;;;;5092311;28;19928;-66
2023/10/16 09:10:09;;;;;;;;;;;;;;;;;;5093272;28;19926;-67
2023/10/16 09:12:44;;;;;;;;;;;;;;;;;;5089368;28;20364;-66
2023/10/16 09:15:15;;;;;;;;;;;;;;;;;;5104979;28;19912;-67
2023/10/16 09:17:42;;;;;;;;;;;;;;;;;;5118002;28;20336;-66
2023/10/16 09:20:14;;;;;;;;;;;;;;;;;;5122526;28;19926;-72
2023/10/16 09:22:40;;;;;;;;;;;;;;;;;;5119410;28;19947;-67
2023/10/16 09:25:06;;;;;;;;;;;;;;;;;;5092594;28;20371;-66
2023/10/16 09:27:42;;;;;;;;;;;;;;;;;;5073834;28;19917;-65
2023/10/16 09:30:20;;;;;;;;;;;;;;;;;;5067488;28;19948;-68
2023/10/16 09:32:48;;;;;;;;;;;;;;;;;;5068743;28;19921;-65
2023/10/16 09:35:16;;;;;;;;;;;;;;;;;;5106423;28;19931;-66
2023/10/16 09:39:34;;;;;;;;;;;;;;;;;;5120361;27;19976;-66
2023/10/16 09:44:09;;;;;;;;;;;;;;;;;;5067603;28;19917;-65
2023/10/16 09:49:07;;;;;;;;;;;;;;;;;;5069023;28;19912;-65
2023/10/16 09:55:12;;;;;;;;;;;;;;;;;;4931130;27;4915671;-66
2023/10/16 09:57:39;;;;;;;;;;;;;;;;;;5107211;28;19947;-66
2023/10/16 10:01:32;;;;;;;;;;;;;;;;;;5085941;27;19927;-66
2023/10/16 10:06:20;;;;;;;;;;;;;;;;;;5085245;27;19923;-65
2023/10/16 10:15:35;;;;;;;;;;;;;;;;;;5109170;27;19936;-66
2023/10/16 10:18:31;;;;;;;;;;;;;;;;;;5096851;28;20284;-65
2023/10/16 10:20:48;;;;;;;;;;;;;;;;;;5103885;28;19912;-65
2023/10/16 10:24:00;;;;;;;;;;;;;;;;;;5107420;27;20286;-65
2023/10/16 10:31:05;;;;;;;;;;;;;;;;;;5107914;27;19920;-67
2023/10/16 10:34:13;;;;;;;;;;;;;;;;;;5088457;27;19916;-62
2023/10/16 10:36:39;;;;;;;;;;;;;;;;;;5088096;28;19919;-67
2023/10/16 10:39:05;;;;;;;;;;;;;;;;;;5086838;28;19916;-66
2023/10/16 10:41:31;;;;;;;;;;;;;;;;;;5095050;28;20022;-66
2023/10/16 10:49:15;;;;;;;;;;;;;;;;;;5121235;27;20384;-65
2023/10/16 10:51:44;;;;;;;;;;;;;;;;;;5109229;28;19938;-70
2023/10/16 10:54:26;;;;;;;;;;;;;;;;;;5088438;27;19928;-69
2023/10/16 10:57:26;;;;;;;;;;;;;;;;;;5107239;27;20275;-69
2023/10/16 10:59:56;;;;;;;;;;;;;;;;;;5107969;28;19912;-71
2023/10/16 11:06:11;;;;;;;;;;;;;;;;;;5151064;27;19911;-71
2023/10/16 11:08:41;;;;;;;;;;;;;;;;;;5150481;27;19912;-73
2023/10/16 11:13:44;;;;;;;;;;;;;;;;;;5093598;27;19923;-68
2023/10/16 11:16:10;;;;;;;;;;;;;;;;;;5082010;28;19912;-69
2023/10/16 11:19:11;;;;;;;;;;;;;;;;;;5085309;28;20324;-71
2023/10/16 11:21:37;;;;;;;;;;;;;;;;;;5082696;28;19912;-73
2023/10/16 11:24:24;;;;;;;;;;;;;;;;;;5111495;27;20298;-72
2023/10/16 11:30:23;;;;;;;;;;;;;;;;;;5157863;27;20010;-69
2023/10/16 11:32:52;;;;;;;;;;;;;;;;;;5149654;27;19912;-72
2023/10/16 11:35:18;;;;;;;;;;;;;;;;;;5150147;27;19960;-72
2023/10/16 11:40:18;;;;;;;;;;;;;;;;;;5162312;27;19915;-72
2023/10/16 11:42:44;;;;;;;;;;;;;;;;;;5161498;27;19962;-70
2023/10/16 11:45:18;;;;;;;;;;;;;;;;;;5152230;27;19950;-73
2023/10/16 11:47:44;;;;;;;;;;;;;;;;;;5152724;27;20436;-71
2023/10/16 11:50:58;;;;;;;;;;;;;;;;;;5171923;27;20003;-70
2023/10/16 11:53:25;;;;;;;;;;;;;;;;;;5167963;27;19910;-71
2023/10/16 12:00:35;;;;;;;;;;;;;;;;;;5090048;27;19920;-72
2023/10/16 12:05:56;;;;;;;;;;;;;;;;;;5091046;27;19916;-69
2023/10/16 12:08:22;;;;;;;;;;;;;;;;;;5090239;28;20011;-72
2023/10/16 12:10:48;;;;;;;;;;;;;;;;;;5090653;28;19951;-71
2023/10/16 12:16:24;;;;;;;;;;;;;;;;;;5173570;27;19915;-72
2023/10/16 12:21:05;;;;;;;;;;;;;;;;;;5111216;27;19916;-70
2023/10/16 12:23:32;;;;;;;;;;;;;;;;;;5111448;28;19959;-70
2023/10/16 12:26:00;;;;;;;;;;;;;;;;;;5110269;28;19914;-70
2023/10/16 12:28:25;;;;;;;;;;;;;;;;;;5111535;28;19912;-70
2023/10/16 12:30:51;;;;;;;;;;;;;;;;;;5111501;28;19999;-70
2023/10/16 12:33:17;;;;;;;;;;;;;;;;;;5111812;28;19908;-70
2023/10/16 12:35:43;;;;;;;;;;;;;;;;;;5110525;28;19953;-69
2023/10/16 12:38:10;;;;;;;;;;;;;;;;;;5111022;28;19965;-68
2023/10/16 12:40:39;;;;;;;;;;;;;;;;;;5107181;28;20372;-69
2023/10/16 12:43:08;;;;;;;;;;;;;;;;;;5110766;28;19992;-70
2023/10/16 12:45:34;;;;;;;;;;;;;;;;;;5110883;28;20010;-70
2023/10/16 12:48:00;;;;;;;;;;;;;;;;;;5109698;28;20002;-70
2023/10/16 12:50:27;;;;;;;;;;;;;;;;;;5110373;28;19912;-70
2023/10/16 12:52:53;;;;;;;;;;;;;;;;;;5110165;28;20014;-70
2023/10/16 12:56:26;;;;;;;;;;;;;;;;;;5091155;28;19916;-73
2023/10/16 12:58:52;;;;;;;;;;;;;;;;;;5090794;28;19944;-68
2023/10/16 13:01:21;;;;;;;;;;;;;;;;;;5090433;28;19920;-71
2023/10/16 13:03:47;;;;;;;;;;;;;;;;;;5090449;28;20372;-71
2023/10/16 13:07:42;;;;;;;;;;;;;;;;;;5091906;28;19916;-71
2023/10/16 13:10:08;;;;;;;;;;;;;;;;;;5091000;28;19935;-70
2023/10/16 13:12:36;;;;;;;;;;;;;;;;;;5091409;28;19908;-70
2023/10/16 13:15:02;;;;;;;;;;;;;;;;;;5091274;28;19919;-70
2023/10/16 13:18:11;;;;;;;;;;;;;;;;;;5091124;27;19974;-70
2023/10/16 13:20:37;;;;;;;;;;;;;;;;;;5089982;28;20265;-72
2023/10/16 13:23:05;;;;;;;;;;;;;;;;;;5091260;28;19909;-70
2023/10/16 13:25:31;;;;;;;;;;;;;;;;;;5090859;28;19909;-70
2023/10/16 13:27:57;;;;;;;;;;;;;;;;;;5091182;28;19913;-72
2023/10/16 13:30:23;;;;;;;;;;;;;;;;;;5091084;28;19908;-72
2023/10/16 13:32:49;;;;;;;;;;;;;;;;;;5090655;28;19940;-70
2023/10/16 13:35:16;;;;;;;;;;;;;;;;;;5091374;28;20433;-70
2023/10/16 13:37:42;;;;;;;;;;;;;;;;;;5090839;28;19970;-70
2023/10/16 13:40:15;;;;;;;;;;;;;;;;;;5088768;28;19947;-70
2023/10/16 13:42:41;;;;;;;;;;;;;;;;;;5089578;28;20364;-70
2023/10/16 13:45:12;;;;;;;;;;;;;;;;;;5089710;28;19909;-71
2023/10/16 13:47:42;;;;;;;;;;;;;;;;;;5089210;28;20272;-70
2023/10/16 13:51:01;;;;;;;;;;;;;;;;;;5110410;27;19916;-70
2023/10/16 13:53:27;;;;;;;;;;;;;;;;;;5109233;28;20355;-70
2023/10/16 13:55:54;;;;;;;;;;;;;;;;;;5111554;28;19961;-72
2023/10/16 13:58:20;;;;;;;;;;;;;;;;;;5110406;28;20382;-72
2023/10/16 14:00:47;;;;;;;;;;;;;;;;;;5111177;28;19915;-72
2023/10/16 14:05:46;;;;;;;;;;;;;;;;;;5111503;28;20381;-72
2023/10/16 14:11:52;;;;;;;;;;;;;;;;;;5173854;27;19914;-72
2023/10/16 14:14:18;;;;;;;;;;;;;;;;;;5173712;27;19936;-72
2023/10/16 14:16:46;;;;;;;;;;;;;;;;;;5173735;27;19911;-70
2023/10/16 14:19:13;;;;;;;;;;;;;;;;;;5174241;27;19911;-72
2023/10/16 14:21:40;;;;;;;;;;;;;;;;;;5173225;27;19911;-70
2023/10/16 14:24:06;;;;;;;;;;;;;;;;;;5173530;27;19965;-70
2023/10/16 14:26:34;;;;;;;;;;;;;;;;;;5173670;27;19911;-70
2023/10/16 14:29:00;;;;;;;;;;;;;;;;;;5173254;27;19913;-70
2023/10/16 14:32:56;;;;;;;;;;;;;;;;;;5091712;27;20300;-72
2023/10/16 14:35:24;;;;;;;;;;;;;;;;;;5089651;28;20003;-70
2023/10/16 14:37:50;;;;;;;;;;;;;;;;;;5091143;28;20280;-70
2023/10/16 14:40:16;;;;;;;;;;;;;;;;;;5091292;28;19955;-70
2023/10/16 14:42:42;;;;;;;;;;;;;;;;;;5090865;28;19908;-70
2023/10/16 14:45:08;;;;;;;;;;;;;;;;;;5089761;28;19909;-70
2023/10/16 14:47:36;;;;;;;;;;;;;;;;;;5089666;28;20007;-70
2023/10/16 14:50:16;;;;;;;;;;;;;;;;;;5091268;27;19916;-70
2023/10/16 14:53:19;;;;;;;;;;;;;;;;;;5092015;28;19923;-72
2023/10/16 14:55:45;;;;;;;;;;;;;;;;;;5090939;28;19923;-72
2023/10/16 14:58:11;;;;;;;170.80;155.27;;;;;;;;;;5091076;28;20366;-72
2023/10/16 15:02:44;;;;;;;555.10;334.40;;;;;;;;;;5070630;27;20391;-71
2023/10/16 15:05:12;;;;;;;415.80;195.60;;;;;;;;;;5071189;28;20371;-72
2023/10/16 15:07:38;;;;;;;392.08;257.80;;;;;;;;;;5070785;28;20441;-72
2023/10/16 15:10:07;;;;;;;636.00;321.85;;;;;;;;;;5070392;28;20060;-72
2023/10/16 15:12:33;;;;;;;;;;;;;;;;;;5071191;28;19916;-71
2023/10/16 15:14:59;;;;;;;;;;;;;;;;;;5071190;28;19991;-72
2023/10/16 15:17:25;;;;;;;;;;;;;;;;;;5070639;28;19916;-71
2023/10/16 15:19:50;;;;;;;;;;;;;;;;;;5070917;28;19912;-71
2023/10/16 15:22:16;;;;;;;;;;;;;;;;;;5070802;28;19917;-71
2023/10/16 15:26:35;;;;;;;;;;;;;;;;;;5091277;27;19919;-71
2023/10/16 15:29:01;;;;;;;;;;;;;;;;;;5091801;28;20309;-71
2023/10/16 15:31:28;;;;;;;;;;;;;;;;;;5090969;28;19915;-71
2023/10/16 15:33:54;;;;;;;;;;;;;;;;;;5090031;28;19952;-71
2023/10/16 15:36:20;;;;;;;;;;;;;;;;;;5091190;28;19935;-71
2023/10/16 15:41:00;;;;;;;;;;;;;;;;;;5112467;27;19916;-69
2023/10/16 15:43:26;;;;;;;;;;;;;;;;;;5112019;28;19965;-71
2023/10/16 15:45:52;;;;;;;;;;;;;;;;;;5111408;28;19908;-71
2023/10/16 15:50:17;;;;;;;418.08;230.88;;;;;;;;;;5071508;28;20441;-71
2023/10/16 15:52:43;;;;;;;;;;;;;;;;;;5070848;28;20061;-71
2023/10/16 15:55:09;;;;;;;;;;;;;;;;;;5071155;28;19904;-71
2023/10/16 15:57:35;;;;;;;;;;;;;;;;;;5071100;28;19909;-71
2023/10/16 16:00:04;;;;;;;;;;;;;;;;;;5070677;28;19911;-70
2023/10/16 16:02:32;;;;;;;;;;;;;;;;;;5070959;28;19905;-71
2023/10/16 16:04:58;;;;;;;;;;;;;;;;;;5070934;28;19916;-71
2023/10/16 16:07:25;;;;;;;;;;;;;;;;;;5070443;28;19912;-71
2023/10/16 16:09:51;;;;;;;;;;;;;;;;;;5070700;28;19966;-71
2023/10/16 16:12:17;;;;;;;;;;;;;;;;;;5069414;28;19908;-70
2023/10/16 16:17:12;;;;;;;;;;;;;;;;;;5091348;27;20283;-71
2023/10/16 16:19:39;;;;;;;;;;;;;;;;;;5091670;28;19999;-71
2023/10/16 16:22:05;;;;;;;;;;;;;;;;;;5090834;28;19908;-71
2023/10/16 16:24:32;;;;;;;;;;;;;;;;;;5090019;28;19915;-71
2023/10/16 16:26:57;;;;;;;;;;;;;;;;;;5091213;28;19915;-71
2023/10/16 16:29:23;;;;;;;;;;;;;;;;;;5090915;28;20330;-70
2023/10/16 16:31:49;;;;;;;;;;;;;;;;;;5090094;28;19912;-70
2023/10/16 16:34:15;;;;;;;;;;;;;;;;;;5090824;28;19912;-71
2023/10/16 16:36:42;;;;;;;;;;;;;;;;;;5089733;28;20400;-71
2023/10/16 16:39:12;;;;;;;;;;;;;;;;;;5091070;28;20365;-70
2023/10/16 16:41:38;;;;;;;;;;;;;;;;;;5090575;28;19908;-70
2023/10/16 16:44:04;;;;;;;;;;;;;;;;;;5091011;28;19908;-70
2023/10/16 16:46:30;;;;;;;;;;;;;;;;;;5090938;28;20418;-71
2023/10/16 16:49:01;;;;;;;;;;;;;;;;;;5090028;28;19908;-70
2023/10/16 16:51:28;;;;;;;;;;;;;;;;;;5090709;28;20270;-70
2023/10/16 16:53:54;;;;;;;;;;;;;;;;;;5090596;28;19908;-70
2023/10/16 16:56:20;;;;;;;;;;;;;;;;;;5088890;28;20022;-70
2023/10/16 16:58:46;;;;;;;;;;;;;;;;;;5090364;28;20235;-70
2023/10/16 17:01:11;;;;;;;;;;;;;;;;;;5090414;28;19913;-70
2023/10/16 17:03:37;;;;;;;;;;;;;;;;;;5088778;28;19991;-70
2023/10/16 17:06:03;;;;;;;;;;;;;;;;;;5090312;28;19912;-70
2023/10/16 17:08:29;;;;;;;;;;;;;;;;;;5090288;28;19908;-69
2023/10/16 17:10:55;;;;;;;;;;;;;;;;;;5089995;28;19954;-70
2023/10/16 17:13:21;;;;;;;;;;;;;;;;;;5089044;28;19909;-69
2023/10/16 17:15:47;;;;;;;;;;;;;;;;;;5088584;28;19966;-70
2023/10/16 17:18:15;;;;;;;;;;;;;;;;;;5089788;28;19912;-70
2023/10/16 17:20:41;;;;;;;;;;;;;;;;;;5090203;28;19908;-69
2023/10/16 17:23:07;;;;;;;;;;;;;;;;;;5090075;28;19908;-69
2023/10/16 17:25:34;;;;;;;;;;;;;;;;;;5089703;28;19920;-69
2023/10/16 17:28:00;;;;;;;;;;;;;;;;;;5079479;28;19951;-70
2023/10/16 17:30:26;;;;;;;;;;;;;;;;;;5076124;28;19912;-69
2023/10/16 17:32:52;;;;;;;;;;;;;;;;;;5076428;28;19913;-70
2023/10/16 17:35:23;;;;;;;;;;;;;;;;;;5075112;28;19912;-70
2023/10/16 17:37:49;;;;;;;;;;;;;;;;;;5075932;28;19912;-70
2023/10/16 17:40:15;;;;;;;;;;;;;;;;;;5076343;28;20364;-70
2023/10/16 17:42:42;;;;;;;;;;;;;;;;;;5076179;28;19908;-71
2023/10/16 17:45:11;;;;;;;;;;;;;;;;;;5075729;28;20424;-70
2023/10/16 17:47:37;;;;;;;;;;;;;;;;;;5076238;28;19913;-70
2023/10/16 17:50:03;;;;;;;;;;;;;;;;;;5075087;28;19955;-70
2023/10/16 17:52:33;;;;;;;;;;;;;;;;;;5075789;28;20038;-70
2023/10/16 17:54:59;;;;;;;;;;;;;;;;;;5075889;28;19940;-70
2023/10/16 17:57:25;;;;;;;;;;;;;;;;;;5076111;28;20385;-69
2023/10/16 17:59:51;;;;;;;;;;;;;;;;;;5074359;28;20368;-70
2023/10/16 18:02:17;;;;;;;;;;;;;;;;;;5075950;28;20053;-70
2023/10/16 18:04:43;;;;;;;;;;;;;;;;;;5075966;28;19909;-70
2023/10/16 18:07:09;;;;;;;215.48;159.82;;;;;;;;;;5074366;28;20366;-70
2023/10/16 18:09:35;;;;;;;;;;;;;;;;;;5075964;28;20027;-70
2023/10/16 18:12:04;;;;;;;;;;;;;;;;;;5075835;28;19904;-70
2023/10/16 18:14:30;;;;;;;;;;;;;;;;;;5075484;28;19905;-70
2023/10/16 18:16:59;;;;;;;;;;;;;;;;;;5094029;28;20330;-70
2023/10/16 18:19:25;;;;;;;;;;;;;;;;;;5095900;28;19904;-70
2023/10/16 18:21:51;;;;;;;;;;;;;;;;;;5095439;28;19904;-71
2023/10/16 18:24:20;;;;;;;;;;;;;;;;;;5077654;28;20338;-70
2023/10/16 18:26:47;;;;;;;;;;;;;;;;;;5077244;28;19904;-70
2023/10/16 18:29:13;;;;;;;;;;;;;;;;;;5095816;28;20383;-70
2023/10/16 18:31:39;;;;;;;;;;;;;;;;;;5095590;28;19904;-70
2023/10/16 18:34:06;;;;;;;;;;;;;;;;;;5095279;28;19904;-70
2023/10/16 18:36:32;;;;;;;;;;;;;;;;;;5095525;28;19931;-70
2023/10/16 18:38:59;;;;;;;;;;;;;;;;;;5076374;28;19911;-70
2023/10/16 18:41:25;;;;;;;;;;;;;;;;;;5095269;28;19994;-70
2023/10/16 18:43:51;;;;;;;;;;;;;;;;;;5077174;28;19977;-70
2023/10/16 18:46:17;;;;;;;;;;;;;;;;;;5095420;28;19920;-70
2023/10/16 18:48:45;;;;;;;;;;;;;;;;;;5094856;28;19915;-70
2023/10/16 18:51:11;;;;;;;;;;;;;;;;;;5095348;28;19904;-70
2023/10/16 18:53:37;;;;;;;;;;;;;;;;;;5095273;28;19911;-70
2023/10/16 18:56:04;;;;;;;;;;;;;;;;;;5094810;28;19912;-70
2023/10/16 18:58:30;;;;;;;;;;;;;;;;;;5095250;28;19904;-70
2023/10/16 19:00:56;;;;;;;;;;;;;;;;;;5095232;28;19904;-70
2023/10/16 19:03:23;;;;;;;;;;;;;;;;;;5094637;28;19926;-70
2023/10/16 19:05:49;;;;;;;;;;;;;;;;;;5095139;28;19950;-70
2023/10/16 19:08:15;;;;;;;;;;;;;;;;;;5094950;28;20314;-70
2023/10/16 19:10:41;;;;;;;;;;;;;;;;;;5094143;28;19907;-70
2023/10/16 19:13:11;;;;;;;;;;;;;;;;;;5094859;28;19949;-70
2023/10/16 19:15:37;;;;;;;;;;;;;;;;;;5094563;28;19915;-70
2023/10/16 19:18:04;;;;;;;;;;;;;;;;;;5094420;28;19911;-69
2023/10/16 19:20:30;;;;;;;;;;;;;;;;;;5094796;28;20382;-71
2023/10/16 19:22:56;;;;;;;;;;;;;;;;;;5094311;28;19994;-70
2023/10/16 19:25:22;;;;;;;;;;;;;;;;;;5094633;28;20429;-70
2023/10/16 19:27:48;;;;;;;;;;;;;;;;;;5094535;28;20364;-69
2023/10/16 19:30:16;;;;;;;;;;;;;;;;;;5076028;28;19999;-69
2023/10/16 19:32:44;;;;;;;;;;;;;;;;;;5093940;28;19904;-71
2023/10/16 19:35:10;;;;;;;;;;;;;;;;;;5075814;28;20425;-69
2023/10/16 19:37:36;;;;;;;;;;;;;;;;;;5093217;28;19950;-69
2023/10/16 19:40:11;;;;;;;;;;;;;;;;;;5075880;28;19912;-69
2023/10/16 19:42:38;;;;;;;;;;;;;;;;;;5076228;28;19957;-70
2023/10/16 19:45:08;;;;;;;;;;;;;;;;;;5093937;28;19950;-70
2023/10/16 19:47:34;;;;;;;;;;;;;;;;;;5093647;28;19912;-72
2023/10/16 19:50:02;;;;;;;;;;;;;;;;;;5091943;28;19912;-70
2023/10/16 19:52:28;;;;;;;;;;;;;;;;;;5091952;28;19994;-71
2023/10/16 19:54:54;;;;;;;;;;;;;;;;;;5092217;28;20368;-71
2023/10/16 19:57:20;;;;;;;;;;;;;;;;;;5092124;28;19950;-71
2023/10/16 19:59:46;;;;;;;;;;;;;;;;;;5091732;28;19911;-71